Time;durP1;ratioP1;P1;durP2;ratioP2;P2;SDS_P1;SDS_P2;PMS_P1;PMS_P2;Temp;Humidity;BMP_temperature;BMP_pressure;BME280_temperature;BME280_humidity;BME280_pressure;Samples;Min_cycle;Max_cycle;Signal;HPM_P1;HPM_P2
2021/10/14 00:00:11;;;;;;;17.05;8.48;;;11.90;99.90;;;;;;5072265;28;20032;-76
2021/10/14 00:02:37;;;;;;;12.40;7.68;;;11.90;99.90;;;;;;5072754;28;20032;-76
2021/10/14 00:05:04;;;;;;;13.23;9.38;;;11.90;99.90;;;;;;5071911;28;20399;-76
2021/10/14 00:07:30;;;;;;;14.25;8.90;;;11.90;99.90;;;;;;5071511;28;20504;-75
2021/10/14 00:09:55;;;;;;;15.15;9.18;;;11.90;99.90;;;;;;5072564;28;20028;-75
2021/10/14 00:12:21;;;;;;;12.52;9.13;;;11.80;99.90;;;;;;5072502;28;20021;-76
2021/10/14 00:14:47;;;;;;;18.60;11.10;;;11.90;99.90;;;;;;5072040;28;20047;-77
2021/10/14 00:17:15;;;;;;;13.85;9.70;;;11.80;99.90;;;;;;5072053;28;20350;-76
2021/10/14 00:19:41;;;;;;;15.65;11.05;;;11.80;99.90;;;;;;5071853;28;20036;-77
2021/10/14 00:22:06;;;;;;;15.35;9.80;;;11.80;99.90;;;;;;5071586;28;20028;-76
2021/10/14 00:24:32;;;;;;;21.58;11.82;;;11.80;99.90;;;;;;5071994;28;20032;-76
2021/10/14 00:26:58;;;;;;;17.58;11.18;;;11.70;99.90;;;;;;5070955;28;20060;-77
2021/10/14 00:29:24;;;;;;;17.85;12.45;;;11.80;99.90;;;;;;5072019;28;20036;-77
2021/10/14 00:31:49;;;;;;;17.23;11.90;;;11.80;99.90;;;;;;5071890;28;20056;-77
2021/10/14 00:34:15;;;;;;;19.17;11.60;;;11.80;99.90;;;;;;5071345;28;20044;-76
2021/10/14 00:36:41;;;;;;;25.92;12.65;;;11.80;99.90;;;;;;5072031;28;20032;-76
2021/10/14 00:39:07;;;;;;;19.52;13.20;;;11.80;99.90;;;;;;5072144;28;20031;-76
2021/10/14 00:41:32;;;;;;;22.67;14.02;;;11.80;99.90;;;;;;5071236;28;20376;-77
2021/10/14 00:43:58;;;;;;;20.90;13.25;;;11.80;99.90;;;;;;5072133;28;20055;-75
2021/10/14 00:46:25;;;;;;;23.65;14.00;;;11.80;99.90;;;;;;5075810;28;20493;-75
2021/10/14 00:48:52;;;;;;;20.50;14.15;;;11.80;99.90;;;;;;5075747;28;20138;-76
2021/10/14 00:51:18;;;;;;;29.10;15.02;;;11.80;99.90;;;;;;5076582;28;20020;-76
2021/10/14 00:53:45;;;;;;;25.20;14.75;;;11.80;99.90;;;;;;5076020;28;20035;-76
2021/10/14 00:56:11;;;;;;;27.05;14.93;;;11.80;99.90;;;;;;5075550;28;20093;-76
2021/10/14 00:58:37;;;;;;;28.77;15.55;;;11.80;99.90;;;;;;5076772;28;20060;-76
2021/10/14 01:01:04;;;;;;;31.55;16.75;;;11.90;99.90;;;;;;5076769;28;20028;-76
2021/10/14 01:03:31;;;;;;;30.17;15.57;;;11.90;99.90;;;;;;5075483;28;20025;-75
2021/10/14 01:05:57;;;;;;;24.63;15.63;;;11.90;99.90;;;;;;5076549;28;20028;-76
2021/10/14 01:08:23;;;;;;;28.25;16.38;;;11.90;99.90;;;;;;5076003;28;20025;-76
2021/10/14 01:10:49;;;;;;;31.77;16.35;;;12.00;99.90;;;;;;5075159;28;20047;-78
2021/10/14 01:13:16;;;;;;;28.45;16.23;;;12.00;99.90;;;;;;5075918;28;20035;-76
2021/10/14 01:15:44;;;;;;;33.40;16.63;;;12.00;99.90;;;;;;5074930;28;20063;-76
2021/10/14 01:18:10;;;;;;;29.35;15.80;;;12.00;99.90;;;;;;5074927;28;20078;-76
2021/10/14 01:20:36;;;;;;;37.00;16.20;;;12.00;99.90;;;;;;5075509;28;20040;-74
2021/10/14 01:23:01;;;;;;;27.58;14.82;;;12.00;99.90;;;;;;5074880;28;20028;-75
2021/10/14 01:25:27;;;;;;;38.90;17.63;;;12.10;99.90;;;;;;5075003;28;20044;-75
2021/10/14 01:27:54;;;;;;;29.52;17.08;;;12.00;99.90;;;;;;5074861;28;20020;-75
2021/10/14 01:30:19;;;;;;;29.85;17.13;;;12.00;99.90;;;;;;5074370;28;20024;-75
2021/10/14 01:32:47;;;;;;;33.17;18.25;;;12.00;99.90;;;;;;5074588;28;20161;-76
2021/10/14 01:35:13;;;;;;;36.85;17.10;;;12.10;99.90;;;;;;5074958;28;20048;-76
2021/10/14 01:37:38;;;;;;;39.22;17.85;;;12.10;99.90;;;;;;5073694;28;20024;-78
2021/10/14 01:40:05;;;;;;;31.63;15.98;;;12.10;99.90;;;;;;5074697;28;20368;-76
2021/10/14 01:42:31;;;;;;;36.60;17.00;;;12.10;99.90;;;;;;5075000;28;20565;-75
2021/10/14 01:45:00;;;;;;;29.83;16.25;;;12.10;99.90;;;;;;5074154;28;20106;-77
2021/10/14 01:47:27;;;;;;;34.05;17.58;;;12.10;99.90;;;;;;5074655;28;20020;-77
2021/10/14 01:49:53;;;;;;;30.50;16.42;;;12.10;99.90;;;;;;5074186;28;20024;-77
2021/10/14 01:52:18;;;;;;;34.65;17.80;;;12.10;99.90;;;;;;5073880;28;20024;-76
2021/10/14 01:54:44;;;;;;;38.17;18.50;;;12.10;99.90;;;;;;5074154;28;20075;-76
2021/10/14 01:57:09;;;;;;;32.38;17.30;;;12.10;99.90;;;;;;5074907;28;20027;-76
2021/10/14 01:59:35;;;;;;;33.20;17.52;;;12.10;99.90;;;;;;5074218;28;20029;-77
2021/10/14 02:02:01;;;;;;;39.20;17.73;;;12.10;99.90;;;;;;5074668;28;20023;-77
2021/10/14 02:04:26;;;;;;;37.33;18.17;;;12.10;99.90;;;;;;5074716;28;20035;-76
2021/10/14 02:06:52;;;;;;;36.65;17.83;;;12.10;99.90;;;;;;5073325;28;20024;-76
2021/10/14 02:09:17;;;;;;;34.13;18.27;;;12.10;99.90;;;;;;5075183;28;20031;-77
2021/10/14 02:11:43;;;;;;;33.45;18.67;;;12.10;99.90;;;;;;5074519;28;20085;-78
2021/10/14 02:14:08;;;;;;;29.27;17.60;;;12.00;99.90;;;;;;5073993;28;20105;-77
2021/10/14 02:16:34;;;;;;;30.95;17.20;;;12.00;99.90;;;;;;5074575;28;20040;-76
2021/10/14 02:18:59;;;;;;;34.40;18.98;;;12.00;99.90;;;;;;5073701;28;20025;-75
2021/10/14 02:21:25;;;;;;;33.90;18.02;;;12.00;99.90;;;;;;5073731;28;20032;-77
2021/10/14 02:23:50;;;;;;;34.53;17.10;;;12.00;99.90;;;;;;5074153;28;20036;-76
2021/10/14 02:26:16;;;;;;;38.30;18.33;;;12.10;99.90;;;;;;5074386;28;20021;-75
2021/10/14 02:28:41;;;;;;;32.83;17.98;;;12.10;99.90;;;;;;5073795;28;20484;-75
2021/10/14 02:31:07;;;;;;;35.83;18.42;;;12.10;99.90;;;;;;5074592;28;20081;-75
2021/10/14 02:33:32;;;;;;;32.10;19.10;;;12.00;99.90;;;;;;5073890;28;20032;-74
2021/10/14 02:35:58;;;;;;;34.22;17.77;;;12.00;99.90;;;;;;5073699;28;20048;-76
2021/10/14 02:38:24;;;;;;;34.55;18.90;;;12.10;99.90;;;;;;5074513;28;20056;-77
2021/10/14 02:40:50;;;;;;;33.65;17.73;;;12.10;99.90;;;;;;5072647;28;20062;-77
2021/10/14 02:43:15;;;;;;;34.05;17.45;;;12.10;99.90;;;;;;5073495;28;20108;-77
2021/10/14 02:45:41;;;;;;;31.52;17.95;;;12.10;99.90;;;;;;5073402;28;20028;-77
2021/10/14 02:48:07;;;;;;;33.92;17.98;;;12.10;99.90;;;;;;5072934;28;20020;-77
2021/10/14 02:50:32;;;;;;;39.83;19.50;;;12.10;99.90;;;;;;5073903;28;20111;-76
2021/10/14 02:52:58;;;;;;;35.40;18.17;;;12.10;99.90;;;;;;5073501;28;20064;-76
2021/10/14 02:55:24;;;;;;;33.65;18.38;;;12.10;99.90;;;;;;5073586;28;20025;-76
2021/10/14 02:57:49;;;;;;;32.67;17.67;;;12.00;99.90;;;;;;5073553;28;20533;-76
2021/10/14 03:00:15;;;;;;;34.45;18.45;;;12.00;99.90;;;;;;5073825;28;20036;-74
2021/10/14 03:02:40;;;;;;;36.70;19.25;;;12.00;99.90;;;;;;5072909;28;20066;-76
2021/10/14 03:05:06;;;;;;;36.72;20.65;;;12.00;99.90;;;;;;5073098;28;20044;-76
2021/10/14 03:07:32;;;;;;;38.22;19.52;;;12.00;99.90;;;;;;5072663;28;20024;-76
2021/10/14 03:09:57;;;;;;;37.00;19.00;;;12.10;99.90;;;;;;5072201;28;20035;-76
2021/10/14 03:12:26;;;;;;;39.85;18.65;;;12.10;99.90;;;;;;5066352;28;20024;-77
2021/10/14 03:14:51;;;;;;;28.45;18.45;;;12.10;99.90;;;;;;5067133;28;20125;-77
2021/10/14 03:17:17;;;;;;;41.03;20.67;;;12.00;99.90;;;;;;5073289;28;20468;-75
2021/10/14 03:19:42;;;;;;;43.97;18.83;;;12.00;99.90;;;;;;5072840;28;20047;-76
2021/10/14 03:22:08;;;;;;;33.03;18.92;;;12.00;99.90;;;;;;5073021;28;20111;-76
2021/10/14 03:24:37;;;;;;;41.78;19.48;;;12.00;99.90;;;;;;5072855;28;20035;-76
2021/10/14 03:27:02;;;;;;;38.00;19.27;;;12.10;99.90;;;;;;5072598;28;20020;-76
2021/10/14 03:29:28;;;;;;;30.60;19.75;;;12.10;99.90;;;;;;5072897;28;20533;-76
2021/10/14 03:32:00;;;;;;;39.95;19.80;;;12.10;99.90;;;;;;5071963;28;20028;-75
2021/10/14 03:34:25;;;;;;;34.30;18.95;;;12.10;99.90;;;;;;5059376;28;20044;-75
2021/10/14 03:36:51;;;;;;;38.20;20.70;;;12.10;99.90;;;;;;5071388;28;20052;-77
2021/10/14 03:39:16;;;;;;;40.88;20.33;;;12.20;99.90;;;;;;5072529;28;20116;-76
2021/10/14 03:41:42;;;;;;;33.78;20.33;;;12.10;99.90;;;;;;5072168;28;20028;-77
2021/10/14 03:44:13;;;;;;;35.50;19.77;;;12.10;99.90;;;;;;5071655;28;20028;-77
2021/10/14 03:46:39;;;;;;;35.55;19.80;;;12.10;99.90;;;;;;5072606;28;20028;-76
2021/10/14 03:49:05;;;;;;;48.40;22.52;;;12.20;99.90;;;;;;5072470;28;20020;-75
2021/10/14 03:51:30;;;;;;;37.90;20.45;;;12.20;99.90;;;;;;5071756;28;20012;-75
2021/10/14 03:53:56;;;;;;;36.78;21.13;;;12.20;99.90;;;;;;5072312;28;20021;-75
2021/10/14 03:56:21;;;;;;;41.20;21.35;;;12.20;99.90;;;;;;5072334;28;20025;-76
2021/10/14 03:58:49;;;;;;;38.55;20.20;;;12.20;99.90;;;;;;5071860;28;20479;-76
2021/10/14 04:01:16;;;;;;;37.40;20.60;;;12.30;99.90;;;;;;5072933;28;20035;-76
2021/10/14 04:03:42;;;;;;;39.85;22.20;;;12.30;99.90;;;;;;5072179;28;20037;-76
2021/10/14 04:06:07;;;;;;;37.95;20.65;;;12.30;99.90;;;;;;5072228;28;20380;-75
2021/10/14 04:08:33;;;;;;;34.42;19.98;;;12.30;99.90;;;;;;5072452;28;20036;-76
2021/10/14 04:10:58;;;;;;;36.70;22.20;;;12.30;99.90;;;;;;5071980;28;20460;-77
2021/10/14 04:13:24;;;;;;;37.38;20.42;;;12.30;99.90;;;;;;5071767;28;20468;-76
2021/10/14 04:15:49;;;;;;;38.42;22.50;;;12.40;99.90;;;;;;5072070;28;20020;-75
2021/10/14 04:18:15;;;;;;;38.15;21.77;;;12.30;99.90;;;;;;5072185;28;20036;-76
2021/10/14 04:20:41;;;;;;;45.28;22.85;;;12.40;99.90;;;;;;5072236;28;20048;-76
2021/10/14 04:23:06;;;;;;;40.25;22.05;;;12.30;99.90;;;;;;5072210;28;20028;-76
2021/10/14 04:25:32;;;;;;;44.22;22.75;;;12.10;99.90;;;;;;5071893;28;20099;-75
2021/10/14 04:27:58;;;;;;;46.03;23.05;;;12.30;99.90;;;;;;5071000;28;20534;-76
2021/10/14 04:30:23;;;;;;;48.53;25.33;;;12.30;99.90;;;;;;5072250;28;20032;-75
2021/10/14 04:32:49;;;;;;;41.58;24.05;;;12.30;99.90;;;;;;5072167;28;20024;-76
2021/10/14 04:35:17;;;;;;;45.08;23.77;;;12.20;99.90;;;;;;5071136;28;20098;-76
2021/10/14 04:37:43;;;;;;;41.63;23.42;;;12.30;99.90;;;;;;5071839;28;20111;-75
2021/10/14 04:40:10;;;;;;;44.42;24.10;;;12.30;99.90;;;;;;5071374;28;20025;-76
2021/10/14 04:42:35;;;;;;;44.40;24.33;;;12.30;99.90;;;;;;5068492;28;20021;-76
2021/10/14 04:45:04;;;;;;;44.92;24.52;;;12.30;99.90;;;;;;5061412;28;20507;-76
2021/10/14 04:47:30;;;;;;;48.70;26.08;;;12.30;99.90;;;;;;5071271;28;20495;-76
2021/10/14 04:49:55;;;;;;;44.47;24.42;;;12.30;99.90;;;;;;5071739;28;20025;-76
2021/10/14 04:52:21;;;;;;;54.90;26.23;;;12.40;99.90;;;;;;5071655;28;20542;-76
2021/10/14 04:54:47;;;;;;;46.67;26.42;;;12.30;99.90;;;;;;5070406;28;20056;-75
2021/10/14 04:57:12;;;;;;;53.80;27.48;;;12.30;99.90;;;;;;5071699;28;20017;-75
2021/10/14 04:59:38;;;;;;;51.03;27.48;;;12.30;99.90;;;;;;5071864;28;20029;-76
2021/10/14 05:02:04;;;;;;;51.45;27.83;;;12.40;99.90;;;;;;5071207;28;20016;-77
2021/10/14 05:04:29;;;;;;;43.38;26.63;;;12.40;99.90;;;;;;5071741;28;20433;-76
2021/10/14 05:06:55;;;;;;;51.80;26.77;;;12.40;99.90;;;;;;5071768;28;20056;-74
2021/10/14 05:09:21;;;;;;;44.85;26.77;;;12.30;99.90;;;;;;5070910;28;20032;-75
2021/10/14 05:11:46;;;;;;;51.00;28.00;;;12.30;99.90;;;;;;5071763;28;20063;-75
2021/10/14 05:14:12;;;;;;;54.70;28.52;;;12.40;99.90;;;;;;5071794;28;20542;-75
2021/10/14 05:16:37;;;;;;;53.08;26.38;;;12.30;99.90;;;;;;5070928;28;20465;-76
2021/10/14 05:19:04;;;;;;;52.47;26.95;;;12.30;99.90;;;;;;5071121;28;20475;-74
2021/10/14 05:21:30;;;;;;;53.45;28.50;;;12.30;99.90;;;;;;5071830;28;20028;-75
2021/10/14 05:24:08;;;;;;;50.15;26.45;;;12.40;99.90;;;;;;5070749;28;20043;-75
2021/10/14 05:26:33;;;;;;;46.10;25.90;;;12.30;99.90;;;;;;5075813;28;20020;-75
2021/10/14 05:28:59;;;;;;;54.10;26.45;;;12.40;99.90;;;;;;5082249;28;20035;-76
2021/10/14 05:31:27;;;;;;;57.30;27.70;;;12.30;99.90;;;;;;5090500;28;20073;-75
2021/10/14 05:33:54;;;;;;;49.08;26.77;;;12.40;99.90;;;;;;5090795;28;20027;-76
2021/10/14 05:36:19;;;;;;;56.50;27.33;;;12.40;99.90;;;;;;5089753;28;20094;-75
2021/10/14 05:38:45;;;;;;;46.13;26.00;;;12.40;99.90;;;;;;5091942;28;20059;-76
2021/10/14 05:41:11;;;;;;;50.42;27.42;;;12.40;99.90;;;;;;5092143;28;20483;-76
2021/10/14 05:43:36;;;;;;;50.28;28.33;;;12.40;99.90;;;;;;5090936;28;20031;-75
2021/10/14 05:46:02;;;;;;;54.97;28.30;;;12.40;99.90;;;;;;5090322;28;20035;-76
2021/10/14 05:48:27;;;;;;;50.28;27.17;;;12.40;99.90;;;;;;5091314;28;20020;-73
2021/10/14 05:50:53;;;;;;;52.70;26.55;;;12.40;99.90;;;;;;5088027;28;20016;-76
2021/10/14 05:53:19;;;;;;;61.97;26.35;;;12.40;99.90;;;;;;5089526;28;20032;-75
2021/10/14 05:55:45;;;;;;;48.03;27.02;;;12.40;99.90;;;;;;5091285;28;20131;-75
2021/10/14 05:58:11;;;;;;;52.20;26.75;;;12.40;99.90;;;;;;5084980;28;20028;-74
2021/10/14 06:00:37;;;;;;;52.25;27.08;;;12.50;99.90;;;;;;5090344;28;20375;-76
2021/10/14 06:03:02;;;;;;;46.80;27.05;;;12.50;99.90;;;;;;5090787;28;20016;-76
2021/10/14 06:05:28;;;;;;;48.70;25.50;;;12.50;99.90;;;;;;5089082;28;20032;-76
2021/10/14 06:07:54;;;;;;;49.03;25.67;;;12.50;99.90;;;;;;5089958;28;20023;-76
2021/10/14 06:10:20;;;;;;;46.83;25.45;;;12.50;99.90;;;;;;5086422;28;20568;-77
2021/10/14 06:12:45;;;;;;;51.05;25.98;;;12.50;99.90;;;;;;5085966;28;20103;-75
2021/10/14 06:15:11;;;;;;;47.60;25.27;;;12.50;99.90;;;;;;5083324;28;20020;-75
2021/10/14 06:17:36;;;;;;;46.15;23.80;;;12.50;99.90;;;;;;5086687;28;20489;-75
2021/10/14 06:20:03;;;;;;;45.28;24.77;;;12.50;99.90;;;;;;5088648;28;20048;-77
2021/10/14 06:22:28;;;;;;;50.22;24.52;;;12.50;99.90;;;;;;5083735;28;20041;-77
2021/10/14 06:24:54;;;;;;;47.17;24.45;;;12.50;99.90;;;;;;5089720;28;20028;-75
2021/10/14 06:27:19;;;;;;;49.42;24.92;;;12.50;99.90;;;;;;5085598;28;20017;-75
2021/10/14 06:29:45;;;;;;;43.13;24.05;;;12.50;99.90;;;;;;5084785;28;20024;-75
2021/10/14 06:32:10;;;;;;;42.10;22.38;;;12.60;99.90;;;;;;5086659;28;20016;-75
2021/10/14 06:34:36;;;;;;;48.63;22.38;;;12.60;99.90;;;;;;5083351;28;20020;-76
2021/10/14 06:37:03;;;;;;;50.15;25.13;;;12.60;99.90;;;;;;5089338;28;20032;-75
2021/10/14 06:39:29;;;;;;;49.97;24.17;;;12.60;99.90;;;;;;5082895;28;20028;-74
2021/10/14 06:41:55;;;;;;;43.67;23.15;;;12.60;99.90;;;;;;5080597;28;20027;-75
2021/10/14 06:44:21;;;;;;;38.22;22.02;;;12.60;99.90;;;;;;5088630;28;20025;-75
2021/10/14 06:46:47;;;;;;;45.53;23.63;;;12.60;99.90;;;;;;5085011;28;20546;-78
2021/10/14 06:49:13;;;;;;;47.97;24.48;;;12.60;99.90;;;;;;5089636;28;20032;-77
2021/10/14 06:51:39;;;;;;;44.53;23.20;;;12.70;99.90;;;;;;5086990;28;20017;-76
2021/10/14 06:54:04;;;;;;;46.30;24.75;;;12.70;99.90;;;;;;5086276;28;20035;-77
2021/10/14 06:56:30;;;;;;;49.50;26.45;;;12.70;99.90;;;;;;5085418;28;20028;-77
2021/10/14 06:58:56;;;;;;;44.30;24.25;;;12.70;99.90;;;;;;5085547;28;20024;-77
2021/10/14 07:01:21;;;;;;;44.35;24.35;;;12.70;99.90;;;;;;5086274;28;20020;-77
2021/10/14 07:03:47;;;;;;;40.75;22.83;;;12.70;99.90;;;;;;5080444;28;20028;-78
2021/10/14 07:06:13;;;;;;;46.08;23.92;;;12.70;99.90;;;;;;5083695;28;20085;-78
2021/10/14 07:08:38;;;;;;;47.60;23.25;;;12.80;99.90;;;;;;5082689;28;20025;-77
2021/10/14 07:11:04;;;;;;;42.03;23.73;;;12.70;99.90;;;;;;5082020;28;20373;-78
2021/10/14 07:13:30;;;;;;;50.35;24.15;;;12.80;99.90;;;;;;5075697;28;20364;-79
2021/10/14 07:15:58;;;;;;;50.80;24.35;;;12.80;99.90;;;;;;5080625;28;20024;-78
2021/10/14 07:18:23;;;;;;;46.00;23.40;;;12.80;99.90;;;;;;5073369;28;20491;-79
2021/10/14 07:20:49;;;;;;;37.17;21.20;;;12.80;99.90;;;;;;5075521;28;20028;-78
2021/10/14 07:23:16;;;;;;;41.25;22.90;;;12.80;99.90;;;;;;5085152;28;20119;-76
2021/10/14 07:25:43;;;;;;;38.63;21.35;;;12.80;99.90;;;;;;5082060;28;20024;-76
2021/10/14 07:28:09;;;;;;;44.33;21.73;;;12.80;99.90;;;;;;5073943;28;20100;-80
2021/10/14 07:30:36;;;;;;;40.40;21.20;;;12.80;99.90;;;;;;5073020;28;20039;-75
2021/10/14 07:33:05;;;;;;;38.97;21.52;;;12.90;99.90;;;;;;5078792;28;20020;-80
2021/10/14 07:35:36;;;;;;;37.25;22.67;;;12.90;99.90;;;;;;5088112;28;20077;-75
2021/10/14 07:38:09;;;;;;;38.50;20.92;;;12.90;99.90;;;;;;5084622;28;20036;-78
2021/10/14 07:40:38;;;;;;;42.50;22.45;;;12.90;99.90;;;;;;5082548;28;20089;-78
2021/10/14 07:43:05;;;;;;;37.60;20.40;;;13.00;99.90;;;;;;5077673;28;20026;-79
2021/10/14 07:45:31;;;;;;;48.60;21.52;;;13.00;99.90;;;;;;5078955;28;20114;-78
2021/10/14 07:47:56;;;;;;;37.50;20.50;;;13.00;99.90;;;;;;5087773;28;20043;-79
2021/10/14 07:50:22;;;;;;;37.45;20.65;;;13.10;99.90;;;;;;5072636;28;20143;-78
2021/10/14 07:52:48;;;;;;;36.55;21.40;;;13.10;99.90;;;;;;5082260;28;20016;-77
2021/10/14 07:55:13;;;;;;;41.72;20.65;;;13.20;99.90;;;;;;5080510;28;20063;-77
2021/10/14 07:57:39;;;;;;;45.42;22.30;;;13.20;99.90;;;;;;5079599;28;20028;-80
2021/10/14 08:00:06;;;;;;;45.58;24.08;;;13.20;99.90;;;;;;5087894;28;20103;-78
2021/10/14 08:02:32;;;;;;;40.13;23.52;;;13.20;99.90;;;;;;5088757;28;20048;-82
2021/10/14 08:04:57;;;;;;;40.90;23.10;;;13.20;99.90;;;;;;5085245;28;20089;-77
2021/10/14 08:07:23;;;;;;;41.85;24.25;;;13.20;99.90;;;;;;5072700;28;20103;-77
2021/10/14 08:09:49;;;;;;;38.45;22.55;;;13.20;99.90;;;;;;5072770;28;20093;-79
2021/10/14 08:12:17;;;;;;;37.38;21.48;;;13.20;99.90;;;;;;5068152;28;20060;-78
2021/10/14 08:14:43;;;;;;;33.80;20.55;;;13.20;99.90;;;;;;5071358;28;20024;-80
2021/10/14 08:17:08;;;;;;;33.75;19.58;;;13.20;99.90;;;;;;5072940;28;20039;-79
2021/10/14 08:19:34;;;;;;;39.75;21.15;;;13.20;99.90;;;;;;5069247;28;20056;-76
2021/10/14 08:21:59;;;;;;;34.60;20.27;;;13.10;99.90;;;;;;5070440;28;20013;-76
2021/10/14 08:24:25;;;;;;;38.83;20.50;;;13.20;99.90;;;;;;5070275;28;20138;-75
2021/10/14 08:26:51;;;;;;;33.38;20.25;;;13.20;99.90;;;;;;5069074;28;20027;-77
2021/10/14 08:29:17;;;;;;;39.42;22.25;;;13.20;99.90;;;;;;5070282;28;20024;-76
2021/10/14 08:31:43;;;;;;;37.92;21.50;;;13.20;99.90;;;;;;5068656;28;20074;-76
2021/10/14 08:34:09;;;;;;;35.97;22.08;;;13.20;99.90;;;;;;5068360;28;20029;-75
2021/10/14 08:36:35;;;;;;;40.22;24.23;;;13.20;99.90;;;;;;5076788;28;20048;-75
2021/10/14 08:39:00;;;;;;;39.15;22.73;;;13.20;99.90;;;;;;5079266;28;20039;-75
2021/10/14 08:41:26;;;;;;;46.28;24.73;;;13.20;99.90;;;;;;5075551;28;20024;-75
2021/10/14 08:43:52;;;;;;;43.40;22.13;;;13.20;99.90;;;;;;5074185;28;20043;-75
2021/10/14 08:46:18;;;;;;;38.72;23.70;;;13.10;99.90;;;;;;5070269;28;20446;-75
2021/10/14 08:48:44;;;;;;;38.78;23.85;;;13.20;99.90;;;;;;5069546;28;20033;-76
2021/10/14 08:51:10;;;;;;;43.35;22.95;;;13.20;99.90;;;;;;5070258;28;20059;-76
2021/10/14 08:53:37;;;;;;;51.22;23.63;;;13.20;99.90;;;;;;5069945;28;20032;-76
2021/10/14 08:56:03;;;;;;;42.40;23.52;;;13.20;99.90;;;;;;5070920;28;20089;-76
2021/10/14 08:58:28;;;;;;;42.15;24.80;;;13.20;99.90;;;;;;5070151;28;20024;-76
2021/10/14 09:01:07;;;;;;;45.10;23.98;;;13.30;99.90;;;;;;5069458;28;20110;-76
2021/10/14 09:03:34;;;;;;;45.00;24.63;;;13.30;99.90;;;;;;5067815;28;20082;-76
2021/10/14 09:06:00;;;;;;;39.75;23.50;;;13.40;99.90;;;;;;5070765;28;20045;-76
2021/10/14 09:08:44;;;;;;;39.75;22.92;;;13.40;99.90;;;;;;5075086;28;20024;-76
2021/10/14 09:11:11;;;;;;;43.60;23.95;;;13.50;99.90;;;;;;5073386;28;20496;-76
2021/10/14 09:13:39;;;;;;;36.95;24.98;;;13.60;99.90;;;;;;5078401;28;20053;-76
2021/10/14 09:16:27;;;;;;;42.50;24.92;;;13.60;99.90;;;;;;5084315;28;20154;-76
2021/10/14 09:18:53;;;;;;;42.65;24.30;;;13.70;99.90;;;;;;5080757;28;20025;-76
2021/10/14 09:21:23;;;;;;;43.28;25.05;;;13.70;99.90;;;;;;5082024;28;20028;-76
2021/10/14 09:23:49;;;;;;;41.53;25.05;;;13.70;99.90;;;;;;5075847;28;20484;-76
2021/10/14 09:26:28;;;;;;;37.47;23.50;;;13.70;99.90;;;;;;5073634;28;20090;-77
2021/10/14 09:29:09;;;;;;;31.67;23.13;;;13.80;99.90;;;;;;5072845;28;20024;-77
2021/10/14 09:31:54;;;;;;;36.15;24.00;;;13.80;99.90;;;;;;5072987;28;20119;-76
2021/10/14 09:34:21;;;;;;;41.40;24.48;;;13.90;99.90;;;;;;5078223;28;20032;-76
2021/10/14 09:36:47;;;;;;;35.42;23.85;;;14.00;99.90;;;;;;5072447;28;20044;-75
2021/10/14 09:39:13;;;;;;;44.03;26.30;;;14.00;99.90;;;;;;5075265;28;20033;-74
2021/10/14 09:41:41;;;;;;;36.00;25.05;;;14.20;99.90;;;;;;5075178;28;20032;-77
2021/10/14 09:44:13;;;;;;;39.08;25.58;;;14.20;99.90;;;;;;5077442;28;20408;-77
2021/10/14 09:46:45;;;;;;;39.13;27.27;;;14.30;99.90;;;;;;5076043;28;20376;-76
2021/10/14 09:49:13;;;;;;;42.85;26.02;;;14.30;99.90;;;;;;5073210;28;20182;-76
2021/10/14 09:51:41;;;;;;;38.55;26.20;;;14.40;99.90;;;;;;5078141;28;20028;-76
2021/10/14 09:54:10;;;;;;;34.22;24.85;;;14.40;99.90;;;;;;5083626;28;20080;-75
2021/10/14 09:56:35;;;;;;;35.15;24.67;;;14.50;99.90;;;;;;5083064;28;20673;-75
2021/10/14 09:59:02;;;;;;;35.88;24.63;;;14.60;99.90;;;;;;5079726;28;20024;-74
2021/10/14 10:01:29;;;;;;;32.95;22.38;;;14.70;99.90;;;;;;5081568;28;20490;-75
2021/10/14 10:03:56;;;;;;;36.85;23.45;;;14.90;99.90;;;;;;5085301;28;20044;-75
2021/10/14 10:06:27;;;;;;;38.92;22.88;;;15.00;99.90;;;;;;5081590;28;20024;-76
2021/10/14 10:08:54;;;;;;;30.17;20.80;;;15.10;99.90;;;;;;5078133;28;20024;-76
2021/10/14 10:11:21;;;;;;;37.90;21.10;;;15.10;99.90;;;;;;5077158;28;20028;-75
2021/10/14 10:13:51;;;;;;;33.25;19.52;;;15.10;99.90;;;;;;5082723;28;20048;-74
2021/10/14 10:16:18;;;;;;;28.60;19.05;;;15.20;99.90;;;;;;5078981;28;20385;-74
2021/10/14 10:18:51;;;;;;;29.88;19.67;;;15.30;99.90;;;;;;5071812;28;20468;-74
2021/10/14 10:21:31;;;;;;;27.92;17.58;;;15.30;99.90;;;;;;5073652;28;20086;-75
2021/10/14 10:23:57;;;;;;;;;;;15.30;99.90;;;;;;5072576;28;20476;-75
2021/10/14 10:26:34;;;;;;;29.95;17.63;;;15.30;99.90;;;;;;5071488;28;19950;-75
2021/10/14 10:29:02;;;;;;;25.95;18.55;;;15.40;99.90;;;;;;5070548;28;20032;-75
2021/10/14 10:31:49;;;;;;;25.73;17.02;;;15.40;99.90;;;;;;5073401;28;20020;-74
2021/10/14 10:34:43;;;;;;;32.83;19.02;;;15.50;99.90;;;;;;5067736;28;20032;-75
2021/10/14 10:37:23;;;;;;;24.40;17.58;;;15.50;99.90;;;;;;5069999;28;20049;-75
2021/10/14 10:39:58;;;;;;;26.08;17.48;;;15.40;99.90;;;;;;5068434;28;20056;-74
2021/10/14 10:42:36;;;;;;;30.90;18.45;;;15.30;99.90;;;;;;5074765;28;20498;-74
2021/10/14 10:45:13;;;;;;;32.60;18.98;;;15.20;99.90;;;;;;5080768;28;20398;-75
2021/10/14 10:47:49;;;;;;;25.85;19.17;;;15.00;99.90;;;;;;5076980;28;20025;-76
2021/10/14 10:50:29;;;;;;;34.58;20.20;;;14.90;99.90;;;;;;5072196;28;20100;-76
2021/10/14 10:53:13;;;;;;;26.65;20.20;;;14.80;99.90;;;;;;5071472;28;20031;-76
2021/10/14 10:55:42;;;;;;;32.65;18.75;;;14.80;99.90;;;;;;5068217;28;20024;-76
2021/10/14 10:58:10;;;;;;;31.33;20.02;;;14.70;99.90;;;;;;5070649;28;20099;-76
2021/10/14 11:00:41;;;;;;;26.52;20.35;;;14.80;99.90;;;;;;5071496;28;20385;-76
2021/10/14 11:03:14;;;;;;;29.65;19.73;;;14.90;99.90;;;;;;5074251;28;20032;-75
2021/10/14 11:05:43;;;;;;;29.05;20.73;;;15.00;99.90;;;;;;5079229;28;20097;-75
2021/10/14 11:08:10;;;;;;;33.65;21.85;;;15.00;99.90;;;;;;5075978;28;20027;-75
2021/10/14 11:10:36;;;;;;;30.52;20.52;;;15.10;99.90;;;;;;5071899;28;20039;-75
2021/10/14 11:13:02;;;;;;;25.88;20.15;;;15.20;99.90;;;;;;5071655;28;20020;-76
2021/10/14 11:15:28;;;;;;;29.45;20.20;;;15.00;99.90;;;;;;5071142;28;20369;-75
2021/10/14 11:18:05;;;;;;;28.30;21.15;;;15.00;99.90;;;;;;5071367;28;20031;-75
2021/10/14 11:20:33;;;;;;;33.50;21.17;;;15.00;99.90;;;;;;5073175;28;20260;-76
2021/10/14 11:23:06;;;;;;;30.20;20.95;;;14.90;99.90;;;;;;5070200;28;20425;-76
2021/10/14 11:25:33;;;;;;;33.50;19.55;;;14.80;99.90;;;;;;5071005;28;20127;-75
2021/10/14 11:28:04;;;;;;;28.42;20.48;;;14.80;99.90;;;;;;5069330;28;20016;-76
2021/10/14 11:30:42;;;;;;;37.00;22.15;;;14.70;99.90;;;;;;5071327;28;20020;-74
2021/10/14 11:33:27;;;;;;;36.45;26.13;;;14.70;99.90;;;;;;5069742;28;20505;-76
2021/10/14 11:35:58;;;;;;;30.80;21.75;;;14.60;99.90;;;;;;5069807;28;20059;-75
2021/10/14 11:38:24;;;;;;;;;;;14.70;99.90;;;;;;5071845;28;20067;-76
2021/10/14 11:40:49;;;;;;;32.40;18.88;;;14.80;99.90;;;;;;5070007;28;20435;-76
2021/10/14 11:43:15;;;;;;;33.40;19.95;;;14.80;99.90;;;;;;5069807;28;20024;-74
2021/10/14 11:45:44;;;;;;;32.78;20.35;;;15.00;99.90;;;;;;5071038;28;20036;-75
2021/10/14 11:48:30;;;;;;;33.88;19.83;;;15.00;99.90;;;;;;5070644;28;20025;-74
2021/10/14 11:51:05;;;;;;;27.08;17.90;;;15.20;99.90;;;;;;5069071;28;20035;-74
2021/10/14 11:53:31;;;;;;;26.27;18.52;;;15.30;99.90;;;;;;5070710;28;20020;-74
2021/10/14 11:56:03;;;;;;;26.48;18.38;;;15.40;99.90;;;;;;5070324;28;20366;-74
2021/10/14 11:58:28;;;;;;;29.80;17.88;;;16.00;99.90;;;;;;5070352;28;20027;-75
2021/10/14 12:00:59;;;;;;;25.88;17.63;;;15.40;99.90;;;;;;5070463;28;20372;-75
2021/10/14 12:03:25;;;;;;;24.52;17.50;;;15.50;99.90;;;;;;5070206;28;20032;-74
2021/10/14 12:05:51;;;;;;;25.20;17.13;;;15.40;99.90;;;;;;5070312;28;20029;-76
2021/10/14 12:08:18;;;;;;;25.38;17.58;;;15.40;99.90;;;;;;5070951;28;20077;-77
2021/10/14 12:10:52;;;;;;;23.85;16.90;;;15.50;99.90;;;;;;5069913;28;20383;-78
2021/10/14 12:13:27;;;;;;;25.33;16.85;;;15.50;99.90;;;;;;5081521;28;20028;-79
2021/10/14 12:16:13;;;;;;;23.77;17.33;;;15.50;99.90;;;;;;5079108;28;20031;-78
2021/10/14 12:18:40;;;;;;;26.63;17.80;;;15.50;99.90;;;;;;5068998;28;20024;-79
2021/10/14 12:21:32;;;;;;;28.00;17.35;;;15.70;99.90;;;;;;5067999;28;20085;-77
2021/10/14 12:24:23;;;;;;;22.70;16.83;;;15.40;99.90;;;;;;5070623;28;20033;-80
2021/10/14 12:26:54;;;;;;;23.73;15.95;;;15.40;99.90;;;;;;5070149;28;20056;-78
2021/10/14 12:29:34;;;;;;;28.40;16.75;;;15.40;99.90;;;;;;5068580;28;20025;-79